Time;durP1;ratioP1;P1;durP2;ratioP2;P2;SDS_P1;SDS_P2;PMS_P1;PMS_P2;Temp;Humidity;BMP_temperature;BMP_pressure;BME280_temperature;BME280_humidity;BME280_pressure;Samples;Min_cycle;Max_cycle;Signal;HPM_P1;HPM_P2
2021/12/29 00:00:25;;;;;;;8.80;3.60;;;;;;;;;;5055740;27;98389;-72
2021/12/29 00:02:52;;;;;;;7.72;3.85;;;;;;;;;;5037554;27;100248;-72
2021/12/29 00:05:19;;;;;;;12.65;4.88;;;;;;;;;;5054682;27;99752;-72
2021/12/29 00:07:46;;;;;;;9.88;4.15;;;;;;;;;;5055327;27;98344;-72
2021/12/29 00:10:13;;;;;;;8.57;5.05;;;;;;;;;;5055610;27;100059;-72
2021/12/29 00:12:41;;;;;;;8.60;5.30;;;;;;;;;;5058753;27;98563;-72
2021/12/29 00:15:09;;;;;;;11.18;5.47;;;;;;;;;;5054652;27;98572;-72
2021/12/29 00:17:36;;;;;;;11.70;6.18;;;;;;;;;;5054684;27;99683;-72
2021/12/29 00:20:03;;;;;;;11.63;6.40;;;;;;;;;;5054917;27;99151;-72
2021/12/29 00:22:30;;;;;;;13.10;6.50;;;;;;;;;;5037722;27;100519;-72
2021/12/29 00:24:56;;;;;;;20.00;6.95;;;;;;;;;;5054821;27;99026;-72
2021/12/29 00:27:23;;;;;;;15.10;7.05;;;;;;;;;;5055160;27;98351;-72
2021/12/29 00:29:49;;;;;;;19.42;8.10;;;;;;;;;;5037199;27;101498;-72
2021/12/29 00:32:48;;;;;;;21.60;8.07;;;;;;;;;;5054124;27;100513;-72
2021/12/29 00:35:34;;;;;;;19.95;8.35;;;;;;;;;;5056720;27;98438;-72
2021/12/29 00:38:27;;;;;;;20.77;8.38;;;;;;;;;;5054439;27;99965;-73
2021/12/29 00:41:12;;;;;;;15.60;6.55;;;;;;;;;;5052521;27;98466;-73
2021/12/29 00:43:58;;;;;;;16.30;7.70;;;;;;;;;;5053553;27;98436;-72
2021/12/29 00:46:54;;;;;;;22.52;7.80;;;;;;;;;;5052981;27;101423;-72
2021/12/29 00:49:22;;;;;;;15.30;7.20;;;;;;;;;;5054946;27;98415;-72
2021/12/29 00:51:49;;;;;;;16.50;6.75;;;;;;;;;;5054629;27;101068;-72
2021/12/29 00:54:15;;;;;;;18.15;7.75;;;;;;;;;;5054320;27;100027;-72
2021/12/29 00:56:44;;;;;;;21.50;8.50;;;;;;;;;;5058217;27;98331;-72
2021/12/29 00:59:10;;;;;;;22.55;9.77;;;;;;;;;;5054234;27;101241;-72
2021/12/29 01:01:37;;;;;;;33.20;9.95;;;;;;;;;;5054238;27;98387;-73
2021/12/29 01:04:03;;;;;;;24.17;10.02;;;;;;;;;;5055237;27;99480;-73
2021/12/29 01:06:30;;;;;;;24.40;10.10;;;;;;;;;;5053623;27;99476;-73
2021/12/29 01:08:56;;;;;;;27.10;10.68;;;;;;;;;;5053608;27;98410;-72
2021/12/29 01:11:23;;;;;;;23.27;10.55;;;;;;;;;;5053378;27;100226;-73
2021/12/29 01:13:51;;;;;;;22.23;11.02;;;;;;;;;;5052877;27;99655;-74
2021/12/29 01:19:07;;;;;;;27.95;11.40;;;;;;;;;;5056634;27;99449;-72
2021/12/29 01:21:34;;;;;;;23.35;10.00;;;;;;;;;;5053420;27;98358;-72
2021/12/29 01:24:02;;;;;;;22.98;11.63;;;;;;;;;;5053474;27;99674;-72
2021/12/29 01:26:28;;;;;;;25.33;11.45;;;;;;;;;;5051561;27;99620;-73
2021/12/29 01:28:55;;;;;;;26.48;11.38;;;;;;;;;;5053887;27;98058;-73
2021/12/29 01:31:21;;;;;;;29.83;11.77;;;;;;;;;;5053544;27;98350;-72
2021/12/29 01:33:48;;;;;;;32.00;11.20;;;;;;;;;;5035010;27;100400;-72
2021/12/29 01:36:14;;;;;;;32.92;11.63;;;;;;;;;;5052815;27;99126;-72
2021/12/29 01:38:40;;;;;;;26.02;10.25;;;;;;;;;;5053185;27;99659;-73
2021/12/29 01:41:07;;;;;;;24.73;9.65;;;;;;;;;;5055862;27;99537;-72
2021/12/29 01:43:33;;;;;;;25.95;9.73;;;;;;;;;;5054168;27;99653;-73
2021/12/29 01:45:59;;;;;;;24.77;9.95;;;;;;;;;;5053743;27;100058;-72
2021/12/29 01:48:26;;;;;;;19.90;9.20;;;;;;;;;;5036349;27;98976;-72
2021/12/29 01:50:52;;;;;;;20.38;9.10;;;;;;;;;;5054008;27;98866;-72
2021/12/29 01:53:24;;;;;;;18.40;8.02;;;;;;;;;;5053954;27;99102;-73
2021/12/29 01:55:51;;;;;;;15.18;6.97;;;;;;;;;;5083144;27;100204;-72
2021/12/29 01:58:18;;;;;;;15.50;7.97;;;;;;;;;;5094798;27;98906;-73
2021/12/29 02:00:45;;;;;;;18.90;8.25;;;;;;;;;;5075417;27;102289;-72
2021/12/29 02:03:12;;;;;;;14.52;7.10;;;;;;;;;;5097680;27;98451;-72
2021/12/29 02:05:39;;;;;;;15.05;8.07;;;;;;;;;;5094318;27;100051;-72
2021/12/29 02:08:06;;;;;;;20.30;8.38;;;;;;;;;;5094741;27;98708;-73
2021/12/29 02:10:41;;;;;;;18.85;8.98;;;;;;;;;;5094315;27;98983;-73
2021/12/29 02:13:08;;;;;;;21.83;8.77;;;;;;;;;;5075643;27;101304;-73
2021/12/29 02:15:34;;;;;;;22.98;9.50;;;;;;;;;;5094493;27;98393;-73
2021/12/29 02:18:00;;;;;;;25.38;9.27;;;;;;;;;;5095008;27;99980;-72
2021/12/29 02:20:27;;;;;;;23.95;10.07;;;;;;;;;;5094243;27;99654;-72
2021/12/29 02:23:12;;;;;;;23.17;10.45;;;;;;;;;;5093153;27;98486;-73
2021/12/29 02:25:49;;;;;;;26.15;10.65;;;;;;;;;;5096292;27;99496;-73
2021/12/29 02:28:18;;;;;;;51.70;13.98;;;;;;;;;;5093553;27;98225;-72
2021/12/29 02:30:45;;;;;;;27.40;10.68;;;;;;;;;;5093645;27;99845;-72
2021/12/29 02:33:13;;;;;;;31.65;10.43;;;;;;;;;;5092478;27;99764;-73
2021/12/29 02:35:43;;;;;;;32.25;10.60;;;;;;;;;;5093664;27;98952;-73
2021/12/29 02:38:24;;;;;;;30.52;10.35;;;;;;;;;;5095930;27;99521;-73
2021/12/29 02:40:55;;;;;;;33.50;9.45;;;;;;;;;;5096867;27;99104;-73
2021/12/29 02:43:23;;;;;;;29.05;10.13;;;;;;;;;;5098443;27;97635;-72
2021/12/29 02:45:54;;;;;;;25.50;9.02;;;;;;;;;;5096712;27;99120;-73
2021/12/29 02:48:23;;;;;;;34.63;9.68;;;;;;;;;;5100886;27;99528;-73
2021/12/29 02:50:54;;;;;;;38.20;8.55;;;;;;;;;;5097164;27;99328;-73
2021/12/29 02:53:21;;;;;;;28.63;7.70;;;;;;;;;;5097346;27;99865;-73
2021/12/29 02:55:48;;;;;;;34.40;8.77;;;;;;;;;;5097512;27;98432;-73
2021/12/29 02:58:14;;;;;;;34.97;7.68;;;;;;;;;;5097184;27;99708;-73
2021/12/29 03:00:40;;;;;;;25.80;7.07;;;;;;;;;;5097114;27;99339;-72
2021/12/29 03:03:16;;;;;;;24.33;7.13;;;;;;;;;;5097679;27;98365;-73
2021/12/29 03:05:42;;;;;;;24.05;6.85;;;;;;;;;;5097716;27;99718;-73
2021/12/29 03:08:10;;;;;;;25.45;6.53;;;;;;;;;;5100855;27;98336;-73
2021/12/29 03:10:36;;;;;;;31.38;6.00;;;;;;;;;;5097549;27;98515;-73
2021/12/29 03:13:03;;;;;;;28.67;7.15;;;;;;;;;;5103934;27;99559;-73
2021/12/29 03:15:29;;;;;;;30.88;6.78;;;;;;;;;;5105137;27;98983;-73
2021/12/29 03:17:56;;;;;;;23.88;6.18;;;;;;;;;;5102388;27;101446;-73
2021/12/29 03:20:22;;;;;;;16.88;5.30;;;;;;;;;;5104210;27;99371;-73
2021/12/29 03:22:48;;;;;;;33.47;5.80;;;;;;;;;;5101504;27;98203;-74
2021/12/29 03:25:15;;;;;;;27.15;5.78;;;;;;;;;;5097099;27;99363;-73
2021/12/29 03:27:41;;;;;;;29.35;5.95;;;;;;;;;;5096609;27;99633;-72
2021/12/29 03:30:08;;;;;;;29.58;6.05;;;;;;;;;;5082622;27;98366;-72
2021/12/29 03:32:40;;;;;;;31.77;6.45;;;;;;;;;;5097413;27;99108;-72
2021/12/29 03:35:07;;;;;;;29.25;6.20;;;;;;;;;;5097106;27;98420;-72
2021/12/29 03:37:33;;;;;;;30.15;5.88;;;;;;;;;;5096854;27;99710;-72
2021/12/29 03:40:00;;;;;;;23.58;5.95;;;;;;;;;;5095414;27;101211;-73
2021/12/29 03:42:26;;;;;;;29.92;5.45;;;;;;;;;;5096995;27;98453;-72
2021/12/29 03:44:53;;;;;;;24.27;5.60;;;;;;;;;;5096927;27;98444;-73
2021/12/29 03:47:19;;;;;;;21.08;4.97;;;;;;;;;;5096434;27;99340;-72
2021/12/29 03:49:45;;;;;;;17.48;4.72;;;;;;;;;;5095800;27;98251;-72
2021/12/29 03:52:12;;;;;;;22.00;5.22;;;;;;;;;;5099600;27;99743;-72
2021/12/29 03:54:38;;;;;;;22.63;5.40;;;;;;;;;;5096237;27;98338;-72
2021/12/29 03:57:05;;;;;;;15.65;4.90;;;;;;;;;;5097213;27;99518;-72
2021/12/29 03:59:31;;;;;;;23.80;5.15;;;;;;;;;;5096462;27;100262;-72
2021/12/29 04:01:59;;;;;;;23.23;5.18;;;;;;;;;;5096614;27;99331;-72
2021/12/29 04:04:25;;;;;;;19.70;5.03;;;;;;;;;;5095952;27;99308;-72
2021/12/29 04:06:52;;;;;;;17.98;4.70;;;;;;;;;;5095210;27;99897;-72
2021/12/29 04:09:19;;;;;;;23.45;5.35;;;;;;;;;;5095440;27;98542;-72
2021/12/29 04:11:50;;;;;;;14.70;4.88;;;;;;;;;;5096920;27;99451;-72
2021/12/29 04:14:18;;;;;;;14.40;4.82;;;;;;;;;;5098325;27;99754;-73
2021/12/29 04:16:46;;;;;;;18.88;5.20;;;;;;;;;;5096500;27;99876;-72
2021/12/29 04:19:14;;;;;;;20.17;5.10;;;;;;;;;;5096256;27;99270;-72
2021/12/29 04:21:42;;;;;;;20.70;5.05;;;;;;;;;;5097050;27;97715;-72
2021/12/29 04:24:09;;;;;;;19.10;5.28;;;;;;;;;;5096175;27;99582;-72
2021/12/29 04:26:37;;;;;;;18.95;5.70;;;;;;;;;;5094755;27;99745;-72
2021/12/29 04:29:04;;;;;;;14.50;5.72;;;;;;;;;;5096027;27;99221;-72
2021/12/29 04:31:31;;;;;;;13.20;5.63;;;;;;;;;;5096461;27;100170;-72
2021/12/29 04:33:57;;;;;;;20.80;6.90;;;;;;;;;;5095998;27;99497;-72
2021/12/29 04:36:26;;;;;;;38.17;8.02;;;;;;;;;;5099311;27;98341;-72
2021/12/29 04:38:54;;;;;;;24.05;7.45;;;;;;;;;;5095854;27;99714;-71
2021/12/29 04:41:21;;;;;;;17.63;7.22;;;;;;;;;;5096133;27;98367;-71
2021/12/29 04:43:47;;;;;;;19.38;7.75;;;;;;;;;;5096250;27;98488;-71
2021/12/29 04:46:16;;;;;;;14.20;7.13;;;;;;;;;;5096222;27;99203;-71
2021/12/29 04:48:50;;;;;;;29.38;7.65;;;;;;;;;;5095962;27;98334;-71
2021/12/29 04:51:24;;;;;;;17.00;6.55;;;;;;;;;;5096010;27;99616;-72
2021/12/29 04:53:51;;;;;;;10.98;6.25;;;;;;;;;;5095071;27;100869;-71
2021/12/29 04:56:17;;;;;;;18.90;6.30;;;;;;;;;;5095998;27;98358;-71
2021/12/29 04:58:44;;;;;;;12.10;5.40;;;;;;;;;;5098782;27;99710;-72
2021/12/29 05:01:11;;;;;;;11.43;5.97;;;;;;;;;;5095704;27;98367;-71
2021/12/29 05:03:38;;;;;;;10.57;5.72;;;;;;;;;;5095459;27;99149;-72
2021/12/29 05:08:31;;;;;;;12.57;4.60;;;;;;;;;;5095606;27;98299;-72
2021/12/29 05:11:05;;;;;;;11.35;4.60;;;;;;;;;;5096041;27;99494;-71
2021/12/29 05:13:32;;;;;;;7.65;4.40;;;;;;;;;;5095130;27;100159;-71
2021/12/29 05:15:59;;;;;;;8.73;5.07;;;;;;;;;;5094915;27;98459;-72
2021/12/29 05:18:27;;;;;;;10.77;5.30;;;;;;;;;;5098086;27;100061;-71
2021/12/29 05:20:54;;;;;;;14.18;6.18;;;;;;;;;;5095493;27;98546;-72
2021/12/29 05:23:21;;;;;;;11.70;5.63;;;;;;;;;;5095536;27;99328;-72
2021/12/29 05:25:49;;;;;;;15.60;5.18;;;;;;;;;;5095123;27;99674;-72
2021/12/29 05:28:17;;;;;;;14.05;4.85;;;;;;;;;;5095297;27;98506;-72
2021/12/29 05:30:44;;;;;;;10.95;4.50;;;;;;;;;;5094830;27;99770;-72
2021/12/29 05:33:11;;;;;;;13.38;3.60;;;;;;;;;;5094835;27;99572;-72
2021/12/29 05:35:37;;;;;;;8.23;4.28;;;;;;;;;;5095673;27;97803;-72
2021/12/29 05:38:03;;;;;;;12.32;3.72;;;;;;;;;;5095003;27;99280;-72
2021/12/29 05:40:30;;;;;;;6.30;3.20;;;;;;;;;;5097962;27;99451;-72
2021/12/29 05:42:57;;;;;;;7.20;2.55;;;;;;;;;;5093959;27;100399;-72
2021/12/29 05:45:24;;;;;;;6.30;2.40;;;;;;;;;;5094557;27;100020;-72
2021/12/29 05:47:51;;;;;;;3.55;2.30;;;;;;;;;;5094949;27;98387;-71
2021/12/29 05:50:19;;;;;;;5.85;2.85;;;;;;;;;;5094941;27;99579;-71
2021/12/29 05:52:45;;;;;;;12.00;2.90;;;;;;;;;;5094237;27;100125;-73
2021/12/29 05:55:12;;;;;;;8.13;2.70;;;;;;;;;;5095033;27;98383;-72
2021/12/29 05:57:39;;;;;;;6.50;3.03;;;;;;;;;;5094491;27;99583;-72
2021/12/29 06:00:07;;;;;;;7.28;3.30;;;;;;;;;;5095031;27;99129;-72
2021/12/29 06:02:33;;;;;;;10.57;4.45;;;;;;;;;;5098208;27;98391;-72
2021/12/29 06:05:00;;;;;;;17.50;4.95;;;;;;;;;;5094445;27;99927;-72
2021/12/29 06:07:26;;;;;;;21.27;4.80;;;;;;;;;;5094153;27;99914;-72
2021/12/29 06:09:53;;;;;;;21.60;6.53;;;;;;;;;;5094884;27;99633;-73
2021/12/29 06:12:19;;;;;;;30.63;6.50;;;;;;;;;;5093513;27;99259;-72
2021/12/29 06:14:47;;;;;;;22.08;6.25;;;;;;;;;;5094071;27;98230;-72
2021/12/29 06:17:14;;;;;;;19.33;6.07;;;;;;;;;;5059288;27;100237;-72
2021/12/29 06:19:41;;;;;;;18.00;6.82;;;;;;;;;;5094021;27;99823;-72
2021/12/29 06:22:11;;;;;;;23.70;6.80;;;;;;;;;;5094274;27;98370;-72
2021/12/29 06:24:38;;;;;;;21.92;7.00;;;;;;;;;;5097902;27;99387;-73
2021/12/29 06:27:04;;;;;;;27.63;7.13;;;;;;;;;;5094033;27;98417;-72
2021/12/29 06:29:31;;;;;;;21.42;6.03;;;;;;;;;;5094322;27;99675;-72
2021/12/29 06:31:57;;;;;;;26.63;6.63;;;;;;;;;;5093522;27;100419;-72
2021/12/29 06:34:24;;;;;;;25.38;6.63;;;;;;;;;;5094468;27;98449;-72
2021/12/29 06:36:50;;;;;;;26.80;6.72;;;;;;;;;;5094303;27;99468;-72
2021/12/29 06:39:16;;;;;;;35.13;7.10;;;;;;;;;;5093619;27;99607;-73
2021/12/29 06:41:44;;;;;;;32.67;7.22;;;;;;;;;;5094101;27;98327;-72
2021/12/29 06:44:11;;;;;;;33.63;6.97;;;;;;;;;;5094316;27;98826;-72
2021/12/29 06:46:37;;;;;;;21.77;6.82;;;;;;;;;;5097219;27;100089;-72
2021/12/29 06:49:04;;;;;;;25.95;7.53;;;;;;;;;;5094411;27;99509;-72
2021/12/29 06:51:30;;;;;;;20.80;6.85;;;;;;;;;;5093673;27;99696;-72
2021/12/29 06:53:56;;;;;;;27.05;8.05;;;;;;;;;;5093903;27;98391;-73
2021/12/29 06:56:23;;;;;;;24.48;6.57;;;;;;;;;;5093175;27;100902;-72
2021/12/29 06:58:49;;;;;;;25.30;6.30;;;;;;;;;;5093782;27;99787;-72
2021/12/29 07:01:16;;;;;;;35.92;7.35;;;;;;;;;;5093936;27;98496;-72
2021/12/29 07:03:43;;;;;;;23.73;7.65;;;;;;;;;;5093969;27;99418;-72
2021/12/29 07:06:09;;;;;;;29.20;7.80;;;;;;;;;;5093630;27;100033;-72
2021/12/29 07:08:37;;;;;;;24.20;7.72;;;;;;;;;;5096511;27;98388;-72
2021/12/29 07:11:04;;;;;;;32.88;8.07;;;;;;;;;;5093548;27;99732;-72
2021/12/29 07:13:30;;;;;;;28.95;6.90;;;;;;;;;;5094301;27;97707;-72
2021/12/29 07:15:56;;;;;;;28.13;7.88;;;;;;;;;;5093663;27;100019;-72
2021/12/29 07:18:23;;;;;;;33.60;7.75;;;;;;;;;;5093533;27;99801;-72
2021/12/29 07:20:49;;;;;;;36.65;7.88;;;;;;;;;;5093144;27;99074;-73
2021/12/29 07:23:15;;;;;;;32.95;7.30;;;;;;;;;;5094326;27;99468;-73
2021/12/29 07:25:42;;;;;;;23.83;6.53;;;;;;;;;;5096830;27;99058;-72
2021/12/29 07:28:08;;;;;;;20.30;7.10;;;;;;;;;;5101534;27;98455;-72
2021/12/29 07:30:35;;;;;;;31.65;8.90;;;;;;;;;;5104673;27;98646;-72
2021/12/29 07:33:02;;;;;;;26.55;8.65;;;;;;;;;;5105883;27;98502;-72
2021/12/29 07:35:28;;;;;;;35.50;8.73;;;;;;;;;;5104998;27;98367;-72
2021/12/29 07:37:54;;;;;;;39.33;8.90;;;;;;;;;;5082765;27;98575;-72
2021/12/29 07:40:21;;;;;;;32.72;9.90;;;;;;;;;;5099360;27;98456;-73
2021/12/29 07:42:48;;;;;;;23.92;8.70;;;;;;;;;;5098333;27;99479;-72
2021/12/29 07:45:14;;;;;;;32.72;10.05;;;;;;;;;;5096463;27;99904;-73
2021/12/29 07:47:45;;;;;;;27.27;9.13;;;;;;;;;;5096404;27;98378;-72
2021/12/29 07:50:11;;;;;;;30.30;9.85;;;;;;;;;;5099707;27;99497;-73
2021/12/29 07:52:56;;;;;;;32.75;9.77;;;;;;;;;;5097164;27;98514;-72
2021/12/29 07:55:22;;;;;;;25.85;9.00;;;;;;;;;;5097075;27;99323;-72
2021/12/29 07:57:49;;;;;;;39.90;9.75;;;;;;;;;;5096299;27;99704;-72
2021/12/29 08:00:16;;;;;;;24.48;9.77;;;;;;;;;;5078558;27;98415;-72
2021/12/29 08:02:44;;;;;;;29.38;9.20;;;;;;;;;;5097022;27;98789;-73
2021/12/29 08:05:11;;;;;;;27.65;12.05;;;;;;;;;;5096381;27;99095;-72
2021/12/29 08:07:43;;;;;;;28.73;9.77;;;;;;;;;;5077171;27;98472;-72
2021/12/29 08:10:10;;;;;;;21.25;9.98;;;;;;;;;;5095797;27;99705;-72
2021/12/29 08:12:36;;;;;;;29.02;10.90;;;;;;;;;;5098439;27;99250;-72
2021/12/29 08:15:03;;;;;;;40.70;11.30;;;;;;;;;;5095314;27;99773;-73
2021/12/29 08:17:32;;;;;;;21.98;11.32;;;;;;;;;;5094963;27;99664;-73
2021/12/29 08:20:02;;;;;;;32.50;11.57;;;;;;;;;;5095647;27;98363;-77
2021/12/29 08:22:28;;;;;;;30.55;10.68;;;;;;;;;;5095686;27;99486;-71
2021/12/29 08:24:54;;;;;;;36.67;11.25;;;;;;;;;;5095240;27;99751;-72
2021/12/29 08:27:21;;;;;;;24.48;11.18;;;;;;;;;;5095965;27;97760;-72
2021/12/29 08:29:48;;;;;;;24.63;11.35;;;;;;;;;;5095327;27;98445;-72
2021/12/29 08:32:14;;;;;;;27.60;10.65;;;;;;;;;;5094828;27;99527;-73
2021/12/29 08:34:41;;;;;;;32.53;10.90;;;;;;;;;;5097913;27;99554;-75
2021/12/29 08:37:07;;;;;;;23.45;10.52;;;;;;;;;;5094857;27;99828;-74
2021/12/29 08:39:34;;;;;;;19.02;9.85;;;;;;;;;;5095392;27;98309;-72
2021/12/29 08:42:00;;;;;;;23.73;11.38;;;;;;;;;;5095936;27;99496;-73
2021/12/29 08:44:27;;;;;;;20.13;9.85;;;;;;;;;;5094512;27;99766;-74
2021/12/29 08:46:53;;;;;;;28.70;10.82;;;;;;;;;;5095604;27;98408;-74
2021/12/29 08:49:19;;;;;;;23.05;10.75;;;;;;;;;;5094943;27;99437;-73
2021/12/29 08:51:46;;;;;;;22.38;10.30;;;;;;;;;;5095294;27;98907;-75
2021/12/29 08:54:13;;;;;;;23.13;10.73;;;;;;;;;;5094963;27;98378;-74
2021/12/29 08:56:39;;;;;;;19.30;10.80;;;;;;;;;;5097997;27;99411;-74
2021/12/29 08:59:05;;;;;;;23.00;11.13;;;;;;;;;;5094128;27;99238;-75
2021/12/29 09:01:32;;;;;;;24.00;11.70;;;;;;;;;;5094798;27;99954;-73
2021/12/29 09:03:59;;;;;;;22.42;11.20;;;;;;;;;;5094365;27;99462;-73
2021/12/29 09:06:25;;;;;;;26.48;10.60;;;;;;;;;;5094797;27;98582;-73
2021/12/29 09:08:54;;;;;;;27.25;10.60;;;;;;;;;;5094815;27;99535;-73
2021/12/29 09:11:20;;;;;;;24.73;10.93;;;;;;;;;;5094273;27;99707;-74
2021/12/29 09:13:46;;;;;;;27.23;10.10;;;;;;;;;;5094064;27;98282;-73
2021/12/29 09:16:13;;;;;;;25.30;10.82;;;;;;;;;;5097977;27;99504;-73
2021/12/29 09:18:40;;;;;;;22.50;10.65;;;;;;;;;;5094575;27;98389;-73
2021/12/29 09:21:11;;;;;;;24.60;10.30;;;;;;;;;;5094589;27;99535;-74
2021/12/29 09:23:40;;;;;;;21.58;10.38;;;;;;;;;;5076222;27;100310;-76
2021/12/29 09:26:07;;;;;;;17.90;9.93;;;;;;;;;;5094432;27;99273;-75
2021/12/29 09:28:34;;;;;;;17.08;10.32;;;;;;;;;;5094945;27;98736;-73
2021/12/29 09:31:00;;;;;;;22.15;10.20;;;;;;;;;;5094001;27;99782;-74
2021/12/29 09:33:27;;;;;;;21.70;10.23;;;;;;;;;;5094451;27;98208;-73
2021/12/29 09:35:57;;;;;;;15.32;9.23;;;;;;;;;;5094395;27;98767;-72
2021/12/29 09:38:23;;;;;;;18.55;10.07;;;;;;;;;;5098108;27;99531;-72
2021/12/29 09:40:50;;;;;;;18.40;9.60;;;;;;;;;;5094364;27;99472;-73
2021/12/29 09:43:17;;;;;;;18.88;9.63;;;;;;;;;;5094338;27;99725;-72
2021/12/29 09:45:46;;;;;;;22.55;9.88;;;;;;;;;;5095076;27;98234;-72
2021/12/29 09:48:13;;;;;;;21.77;10.27;;;;;;;;;;5085143;27;99932;-72
2021/12/29 09:50:41;;;;;;;22.83;10.82;;;;;;;;;;5093625;27;99625;-72
2021/12/29 09:53:08;;;;;;;19.55;10.02;;;;;;;;;;5072243;27;98458;-73
2021/12/29 09:55:35;;;;;;;17.50;9.80;;;;;;;;;;5073066;27;99472;-72
2021/12/29 09:58:03;;;;;;;17.60;10.00;;;;;;;;;;5073684;27;99848;-72
2021/12/29 10:00:35;;;;;;;21.42;10.27;;;;;;;;;;5076716;27;98257;-72
2021/12/29 10:03:04;;;;;;;14.90;10.07;;;;;;;;;;5073021;27;99693;-72
2021/12/29 10:05:32;;;;;;;24.40;11.40;;;;;;;;;;5073981;27;97599;-72
2021/12/29 10:08:06;;;;;;;19.08;10.90;;;;;;;;;;5073135;27;98254;-73
2021/12/29 10:10:33;;;;;;;24.23;10.73;;;;;;;;;;5072757;27;99939;-72
2021/12/29 10:13:00;;;;;;;17.67;11.23;;;;;;;;;;5072729;27;99169;-72
2021/12/29 10:15:30;;;;;;;20.13;11.52;;;;;;;;;;5072964;27;100160;-72
2021/12/29 10:18:04;;;;;;;22.65;11.43;;;;;;;;;;5072985;27;99415;-72
2021/12/29 10:20:30;;;;;;;19.60;10.52;;;;;;;;;;5072665;27;98521;-73
2021/12/29 10:22:57;;;;;;;20.55;10.90;;;;;;;;;;5076032;27;99906;-72
2021/12/29 10:25:32;;;;;;;21.40;10.27;;;;;;;;;;5072916;27;98436;-72
2021/12/29 10:28:00;;;;;;;20.90;10.50;;;;;;;;;;5072731;27;99616;-72
2021/12/29 10:30:28;;;;;;;16.40;10.98;;;;;;;;;;5072881;27;99257;-73
2021/12/29 10:32:56;;;;;;;18.27;10.90;;;;;;;;;;5072896;27;98388;-73
2021/12/29 10:35:25;;;;;;;23.23;11.77;;;;;;;;;;5072736;27;98926;-72
2021/12/29 10:37:52;;;;;;;15.90;10.93;;;;;;;;;;5072105;27;99962;-73
2021/12/29 10:40:26;;;;;;;15.90;10.15;;;;;;;;;;5072861;27;98410;-73
2021/12/29 10:42:54;;;;;;;16.88;10.45;;;;;;;;;;5072630;27;99418;-73
2021/12/29 10:45:28;;;;;;;17.92;10.40;;;;;;;;;;5075808;27;99737;-73
2021/12/29 10:47:54;;;;;;;23.15;10.35;;;;;;;;;;5072554;27;99439;-73
2021/12/29 10:50:20;;;;;;;20.40;10.02;;;;;;;;;;5072241;27;99813;-72
2021/12/29 10:52:53;;;;;;;18.40;10.30;;;;;;;;;;5072642;27;98337;-73
2021/12/29 10:55:35;;;;;;;16.73;9.80;;;;;;;;;;5073050;27;98751;-73
2021/12/29 10:58:14;;;;;;;15.40;9.80;;;;;;;;;;5073389;27;99731;-73
2021/12/29 11:00:55;;;;;;;18.27;10.63;;;;;;;;;;5077031;27;98365;-73
2021/12/29 11:03:23;;;;;;;20.65;10.63;;;;;;;;;;5075519;27;99269;-72
2021/12/29 11:05:58;;;;;;;22.17;10.15;;;;;;;;;;5075726;27;99614;-73
2021/12/29 11:08:44;;;;;;;18.08;9.95;;;;;;;;;;5079474;27;98436;-74
2021/12/29 11:11:10;;;;;;;22.80;11.07;;;;;;;;;;5076281;27;99887;-73
2021/12/29 11:13:36;;;;;;;19.98;10.82;;;;;;;;;;5075971;27;98372;-73
2021/12/29 11:16:06;;;;;;;19.63;10.68;;;;;;;;;;5075673;27;99403;-73
2021/12/29 11:18:47;;;;;;;21.53;10.80;;;;;;;;;;5075706;27;99435;-73
2021/12/29 11:21:23;;;;;;;15.68;10.70;;;;;;;;;;5076065;27;97708;-73
2021/12/29 11:23:50;;;;;;;14.15;11.15;;;;;;;;;;5075816;27;98877;-73
2021/12/29 11:26:26;;;;;;;20.10;11.40;;;;;;;;;;5075720;27;99981;-73
2021/12/29 11:28:52;;;;;;;17.92;11.50;;;;;;;;;;5078680;27;99821;-73
2021/12/29 11:31:19;;;;;;;18.50;12.02;;;;;;;;;;5077059;27;99586;-72
2021/12/29 11:33:45;;;;;;;17.08;11.98;;;;;;;;;;5071345;27;98513;-72
2021/12/29 11:36:19;;;;;;;17.70;11.95;;;;;;;;;;5075939;27;98755;-74
2021/12/29 11:38:46;;;;;;;18.10;12.50;;;;;;;;;;5076612;27;99552;-73
2021/12/29 11:41:17;;;;;;;19.52;12.20;;;;;;;;;;5077196;27;98298;-74
2021/12/29 11:43:45;;;;;;;21.27;11.57;;;;;;;;;;5076932;27;98793;-71
2021/12/29 11:46:11;;;;;;;17.17;11.82;;;;;;;;;;5076418;27;99190;-72
2021/12/29 11:48:38;;;;;;;14.20;11.25;;;;;;;;;;5075716;27;98365;-74
2021/12/29 11:51:05;;;;;;;17.20;11.90;;;;;;;;;;5078463;27;99622;-75
2021/12/29 11:53:45;;;;;;;15.00;11.30;;;;;;;;;;5075104;27;99073;-73
2021/12/29 11:56:14;;;;;;;16.67;12.13;;;;;;;;;;5075525;27;99947;-73
2021/12/29 11:58:42;;;;;;;20.73;12.25;;;;;;;;;;5074784;27;99670;-72
2021/12/29 12:01:22;;;;;;;16.48;12.00;;;;;;;;;;5075350;27;99898;-71
2021/12/29 12:03:53;;;;;;;20.00;12.77;;;;;;;;;;5075502;27;99571;-73
2021/12/29 12:06:27;;;;;;;20.13;12.07;;;;;;;;;;5074805;27;99578;-73
2021/12/29 12:09:03;;;;;;;22.10;13.10;;;;;;;;;;5069090;27;98382;-74
2021/12/29 12:11:30;;;;;;;19.70;13.35;;;;;;;;;;5074689;27;99449;-73
2021/12/29 12:13:56;;;;;;;23.90;13.50;;;;;;;;;;5078013;27;100091;-72
2021/12/29 12:16:26;;;;;;;14.43;12.93;;;;;;;;;;5074772;27;99735;-72
2021/12/29 12:18:53;;;;;;;16.98;13.77;;;;;;;;;;5074183;27;100377;-73
2021/12/29 12:21:30;;;;;;;23.00;13.73;;;;;;;;;;5075001;27;98320;-72
2021/12/29 12:24:08;;;;;;;19.25;13.70;;;;;;;;;;5074848;27;99390;-71
2021/12/29 12:26:35;;;;;;;16.40;14.27;;;;;;;;;;5074405;27;99730;-72
2021/12/29 12:29:12;;;;;;;20.05;14.40;;;;;;;;;;5074911;27;98558;-72
2021/12/29 12:31:38;;;;;;;18.40;14.25;;;;;;;;;;5074757;27;99378;-72
2021/12/29 12:34:10;;;;;;;21.23;14.82;;;;;;;;;;5055758;27;99675;-71
2021/12/29 12:36:36;;;;;;;15.30;13.05;;;;;;;;;;5078613;27;97719;-72
2021/12/29 12:39:13;;;;;;;16.00;13.02;;;;;;;;;;5074499;27;99004;-71
2021/12/29 12:41:41;;;;;;;27.38;13.63;;;;;;;;;;5074537;27;98441;-70
2021/12/29 12:44:08;;;;;;;21.52;12.25;;;;;;;;;;5055938;27;102336;-70
2021/12/29 12:46:37;;;;;;;18.67;13.18;;;;;;;;;;5073498;27;99584;-70
2021/12/29 12:49:13;;;;;;;17.58;12.25;;;;;;;;;;5074620;27;98291;-70
2021/12/29 12:51:40;;;;;;;16.55;12.52;;;;;;;;;;5058208;27;99358;-70
2021/12/29 12:54:17;;;;;;;19.00;11.70;;;;;;;;;;5053555;27;99354;-71
2021/12/29 12:56:47;;;;;;;26.52;12.23;;;;;;;;;;5053891;27;98440;-70
2021/12/29 12:59:14;;;;;;;17.02;12.40;;;;;;;;;;5056384;27;99368;-70
2021/12/29 13:01:42;;;;;;;14.32;11.32;;;;;;;;;;5054405;27;97691;-70
2021/12/29 13:04:13;;;;;;;16.70;10.60;;;;;;;;;;5053953;27;98345;-70
2021/12/29 13:06:40;;;;;;;21.85;11.52;;;;;;;;;;5035536;27;99578;-70
2021/12/29 13:09:07;;;;;;;23.55;11.60;;;;;;;;;;5053342;27;99103;-69
2021/12/29 13:11:35;;;;;;;15.02;11.30;;;;;;;;;;5053303;27;99894;-70
2021/12/29 13:14:03;;;;;;;23.48;11.57;;;;;;;;;;5035734;27;99708;-72
2021/12/29 13:16:30;;;;;;;14.77;10.35;;;;;;;;;;5053291;27;98423;-71
2021/12/29 13:18:58;;;;;;;20.05;10.65;;;;;;;;;;5053898;27;99414;-70
2021/12/29 13:21:41;;;;;;;21.92;11.40;;;;;;;;;;5056379;27;99875;-71
2021/12/29 13:24:08;;;;;;;21.92;10.82;;;;;;;;;;5053176;27;98788;-71
2021/12/29 13:26:37;;;;;;;17.65;11.10;;;;;;;;;;5053598;27;99249;-71
2021/12/29 13:29:04;;;;;;;20.08;11.18;;;;;;;;;;5053370;27;98382;-71
2021/12/29 13:31:31;;;;;;;20.27;10.65;;;;;;;;;;5053398;27;99587;-71
2021/12/29 13:33:57;;;;;;;24.50;11.23;;;;;;;;;;5052545;27;100518;-71
2021/12/29 13:36:25;;;;;;;16.50;11.30;;;;;;;;;;5053179;27;98433;-71
2021/12/29 13:38:54;;;;;;;21.02;10.75;;;;;;;;;;5052951;27;99470;-71
2021/12/29 13:41:22;;;;;;;17.83;10.82;;;;;;;;;;5056025;27;99804;-71
2021/12/29 13:43:50;;;;;;;19.08;11.10;;;;;;;;;;5053014;27;99635;-71
2021/12/29 13:46:18;;;;;;;18.00;11.15;;;;;;;;;;5052574;27;99690;-72
2021/12/29 13:48:46;;;;;;;15.68;10.90;;;;;;;;;;5053240;27;98372;-71
2021/12/29 13:51:12;;;;;;;22.52;11.80;;;;;;;;;;5053104;27;99628;-71
2021/12/29 13:53:44;;;;;;;21.67;10.60;;;;;;;;;;5052799;27;99810;-70
2021/12/29 13:56:10;;;;;;;;;;;;;;;;;;5053481;27;100212;-71
2021/12/29 13:58:37;;;;;;;21.00;12.05;;;;;;;;;;5052397;27;126315;-71
2021/12/29 14:01:05;;;;;;;21.55;11.10;;;;;;;;;;5052831;27;99230;-70
2021/12/29 14:03:32;;;;;;;21.33;11.52;;;;;;;;;;5056189;27;98268;-71
2021/12/29 14:05:59;;;;;;;17.63;11.57;;;;;;;;;;5051936;27;99674;-71
2021/12/29 14:08:26;;;;;;;24.52;11.75;;;;;;;;;;5051836;27;98898;-72
2021/12/29 14:10:52;;;;;;;18.77;11.73;;;;;;;;;;5060050;27;99855;-72
2021/12/29 14:13:20;;;;;;;16.95;11.18;;;;;;;;;;5052599;27;99634;-72
2021/12/29 14:15:48;;;;;;;21.20;10.68;;;;;;;;;;5053109;27;97600;-71
2021/12/29 14:18:19;;;;;;;18.13;10.55;;;;;;;;;;5052527;27;98755;-72
2021/12/29 14:20:47;;;;;;;23.60;11.18;;;;;;;;;;5051955;27;99260;-71
2021/12/29 14:23:13;;;;;;;19.52;11.15;;;;;;;;;;5052262;27;99031;-71
2021/12/29 14:25:46;;;;;;;20.00;11.57;;;;;;;;;;5055663;27;100257;-71
2021/12/29 14:28:18;;;;;;;22.48;12.60;;;;;;;;;;5052659;27;98417;-71
2021/12/29 14:30:56;;;;;;;20.33;11.90;;;;;;;;;;5052339;27;99454;-72
2021/12/29 14:33:24;;;;;;;22.13;11.77;;;;;;;;;;5054915;27;100318;-72
2021/12/29 14:35:52;;;;;;;21.60;12.60;;;;;;;;;;5059126;27;98381;-71